Time;durP1;ratioP1;P1;durP2;ratioP2;P2;SDS_P1;SDS_P2;PMS_P1;PMS_P2;Temp;Humidity;BMP_temperature;BMP_pressure;BME280_temperature;BME280_humidity;BME280_pressure;Samples;Min_cycle;Max_cycle;Signal;HPM_P1;HPM_P2
2023/12/15 00:02:08;;;;;;;29.48;22.02;;;;;;;4.41;100.00;102570.59;4986161;28;20512;-75
2023/12/15 00:04:34;;;;;;;26.25;21.40;;;;;;;4.40;100.00;102573.22;4985120;28;20030;-75
2023/12/15 00:06:59;;;;;;;25.80;21.67;;;;;;;4.37;100.00;102562.66;4980278;28;20037;-75
2023/12/15 00:09:25;;;;;;;25.17;21.23;;;;;;;4.44;100.00;102569.72;4983451;28;20042;-74
2023/12/15 00:11:50;;;;;;;27.52;21.75;;;;;;;4.40;100.00;102575.88;4985196;28;20054;-74
2023/12/15 00:14:16;;;;;;;28.58;22.42;;;;;;;4.33;100.00;102561.78;4979471;28;20489;-73
2023/12/15 00:16:41;;;;;;;28.60;22.27;;;;;;;4.43;100.00;102579.38;4983116;28;20516;-74
2023/12/15 00:19:06;;;;;;;26.60;22.65;;;;;;;4.40;100.00;102587.28;4979523;28;20038;-74
2023/12/15 00:21:32;;;;;;;30.38;23.65;;;;;;;4.44;100.00;102602.22;4982062;28;20515;-74
2023/12/15 00:23:57;;;;;;;33.00;23.52;;;;;;;4.44;100.00;102604.00;4982074;28;20077;-74
2023/12/15 00:26:22;;;;;;;29.42;23.73;;;;;;;4.41;100.00;102604.84;4986283;28;20041;-75
2023/12/15 00:28:48;;;;;;;34.60;24.08;;;;;;;4.38;100.00;102603.97;4987184;28;20432;-73
2023/12/15 00:31:14;;;;;;;32.75;25.02;;;;;;;4.42;100.00;102606.59;4987540;28;20034;-73
2023/12/15 00:33:39;;;;;;;34.15;25.98;;;;;;;4.47;100.00;102615.44;4969703;28;20034;-74
2023/12/15 00:36:05;;;;;;;36.38;25.23;;;;;;;4.43;100.00;102608.41;4974941;28;20034;-74
2023/12/15 00:38:30;;;;;;;32.83;25.13;;;;;;;4.45;100.00;102609.25;4990171;28;20034;-73
2023/12/15 00:40:56;;;;;;;35.58;25.58;;;;;;;4.47;100.00;102610.16;4973389;28;20034;-74
2023/12/15 00:43:21;;;;;;;35.88;26.98;;;;;;;4.46;100.00;102604.88;4977136;28;20038;-74
2023/12/15 00:45:46;;;;;;;36.17;25.08;;;;;;;4.52;100.00;102606.66;4972140;28;20050;-74
2023/12/15 00:48:12;;;;;;;34.33;25.58;;;;;;;4.48;100.00;102604.00;4974657;28;20046;-74
2023/12/15 00:50:37;;;;;;;36.85;26.80;;;;;;;4.50;100.00;102609.28;4975995;28;20481;-75
2023/12/15 00:53:02;;;;;;;36.30;25.90;;;;;;;4.43;100.00;102600.47;4981732;28;20066;-73
2023/12/15 00:55:27;;;;;;;37.30;26.80;;;;;;;4.53;100.00;102617.19;4986142;28;20050;-74
2023/12/15 00:57:53;;;;;;;40.10;27.65;;;;;;;4.54;100.00;102608.41;4977453;28;20051;-75
2023/12/15 01:00:18;;;;;;;39.53;27.08;;;;;;;4.55;100.00;102602.25;4969021;28;20057;-74
2023/12/15 01:02:44;;;;;;;35.53;27.50;;;;;;;4.50;100.00;102596.97;4985260;28;20114;-75
2023/12/15 01:05:10;;;;;;;40.85;27.50;;;;;;;4.57;100.00;102608.41;4985655;28;20548;-74
2023/12/15 01:07:35;;;;;;;36.75;26.92;;;;;;;4.57;100.00;102615.44;4965084;28;20178;-75
2023/12/15 01:10:00;;;;;;;38.60;25.85;;;;;;;4.59;100.00;102630.38;4973773;28;20050;-74
2023/12/15 01:12:26;;;;;;;41.03;27.58;;;;;;;4.61;100.00;102622.50;4983680;28;20050;-76
2023/12/15 01:14:51;;;;;;;41.95;28.13;;;;;;;4.64;100.00;102622.47;4985555;28;20030;-75
2023/12/15 01:17:16;;;;;;;39.97;27.55;;;;;;;4.62;100.00;102633.03;4970104;28;20086;-73
2023/12/15 01:19:42;;;;;;;40.17;27.80;;;;;;;4.61;100.00;102626.00;4986468;28;20530;-74
2023/12/15 01:22:07;;;;;;;40.88;26.95;;;;;;;4.61;100.00;102627.78;4977788;28;20049;-76
2023/12/15 01:24:32;;;;;;;41.17;26.85;;;;;;;4.64;100.00;102631.31;4985148;28;20125;-75
2023/12/15 01:26:57;;;;;;;43.20;28.10;;;;;;;4.65;100.00;102637.44;4974312;28;20034;-76
2023/12/15 01:29:23;;;;;;;41.90;27.20;;;;;;;4.62;100.00;102632.16;4979430;28;20026;-76
2023/12/15 01:31:49;;;;;;;40.67;26.75;;;;;;;4.64;100.00;102638.31;4967437;28;20391;-75
2023/12/15 01:34:14;;;;;;;40.25;27.27;;;;;;;4.65;100.00;102642.72;4973988;28;20591;-75
2023/12/15 01:36:39;;;;;;;37.13;27.48;;;;;;;4.64;100.00;102636.56;4969635;28;20492;-75
2023/12/15 01:39:05;;;;;;;39.75;26.80;;;;;;;4.64;100.00;102638.31;4976817;28;20523;-74
2023/12/15 01:41:31;;;;;;;37.38;26.42;;;;;;;4.64;100.00;102640.94;4978639;28;20043;-75
2023/12/15 01:43:56;;;;;;;34.75;25.33;;;;;;;4.67;100.00;102648.88;4993863;28;20046;-75
2023/12/15 01:46:22;;;;;;;40.80;27.55;;;;;;;4.66;100.00;102650.63;4982155;28;20037;-75
2023/12/15 01:48:52;;;;;;;39.70;28.38;;;;;;;4.67;100.00;102655.03;4985056;28;20092;-76
2023/12/15 01:51:20;;;;;;;35.40;26.58;;;;;;;4.67;100.00;102660.28;4975117;28;20425;-76
2023/12/15 01:53:45;;;;;;;38.08;27.13;;;;;;;4.65;100.00;102648.00;4975265;28;20049;-74
2023/12/15 01:56:11;;;;;;;42.70;26.85;;;;;;;4.61;100.00;102643.59;4981706;28;20280;-74
2023/12/15 01:58:36;;;;;;;35.65;25.83;;;;;;;4.68;100.00;102656.81;4986509;28;20708;-74
2023/12/15 02:01:02;;;;;;;36.53;26.25;;;;;;;4.67;100.00;102659.41;4984043;28;20034;-74
2023/12/15 02:03:27;;;;;;;39.20;26.80;;;;;;;4.68;100.00;102669.09;4964387;28;20049;-74
2023/12/15 02:05:52;;;;;;;36.25;26.20;;;;;;;4.64;100.00;102660.31;4980018;28;20489;-76
2023/12/15 02:08:19;;;;;;;36.30;25.02;;;;;;;4.70;100.00;102670.00;4970886;28;20113;-73
2023/12/15 02:10:44;;;;;;;37.03;26.98;;;;;;;4.68;100.00;102683.19;4969625;28;20416;-74
2023/12/15 02:13:10;;;;;;;35.85;25.35;;;;;;;4.70;100.00;102681.41;4981211;28;20043;-75
2023/12/15 02:15:35;;;;;;;35.75;25.02;;;;;;;4.70;100.00;102676.13;4981138;28;20138;-75
2023/12/15 02:18:00;;;;;;;35.97;24.75;;;;;;;4.71;100.00;102677.91;4978215;28;20054;-76
2023/12/15 02:20:26;;;;;;;35.42;25.90;;;;;;;4.70;100.00;102670.88;4984673;28;20122;-75
2023/12/15 02:22:52;;;;;;;32.22;24.05;;;;;;;4.73;100.00;102670.88;4978172;28;20026;-75
2023/12/15 02:25:20;;;;;;;36.30;24.75;;;;;;;4.74;100.00;102679.66;4970929;28;20077;-73
2023/12/15 02:27:45;;;;;;;33.33;24.40;;;;;;;4.74;100.00;102680.53;4985688;28;20712;-76
2023/12/15 02:30:10;;;;;;;35.33;25.55;;;;;;;4.77;100.00;102678.81;4966455;28;20035;-76
2023/12/15 02:32:36;;;;;;;35.30;26.67;;;;;;;4.78;100.00;102680.56;4968985;28;20034;-75
2023/12/15 02:35:01;;;;;;;36.22;23.90;;;;;;;4.77;100.00;102684.09;4983684;28;20027;-74
2023/12/15 02:37:27;;;;;;;34.33;24.33;;;;;;;4.77;100.00;102689.38;4979412;28;20064;-75
2023/12/15 02:39:53;;;;;;;33.03;24.05;;;;;;;4.79;100.00;102696.38;4984905;28;20038;-75
2023/12/15 02:42:18;;;;;;;33.72;24.40;;;;;;;4.81;100.00;102710.47;4977611;28;20085;-74
2023/12/15 02:44:46;;;;;;;37.72;25.50;;;;;;;4.82;100.00;102709.59;4977362;28;20133;-75
2023/12/15 02:47:11;;;;;;;38.28;25.80;;;;;;;4.82;100.00;102696.41;4970896;28;20065;-75
2023/12/15 02:49:38;;;;;;;36.10;25.67;;;;;;;4.84;100.00;102715.75;4984019;28;20080;-74
2023/12/15 02:52:03;;;;;;;37.17;26.02;;;;;;;4.78;100.00;102705.19;4979682;28;20036;-74
2023/12/15 02:54:29;;;;;;;38.50;27.05;;;;;;;4.84;100.00;102721.00;4985502;28;20030;-76
2023/12/15 02:56:54;;;;;;;38.00;25.83;;;;;;;4.85;100.00;102725.44;4982889;28;20049;-75
2023/12/15 02:59:19;;;;;;;40.58;27.35;;;;;;;4.87;100.00;102728.06;4978222;28;20030;-74
2023/12/15 03:01:45;;;;;;;43.63;27.40;;;;;;;4.84;100.00;102721.00;4981057;28;20050;-74
2023/12/15 03:04:10;;;;;;;37.20;26.08;;;;;;;4.85;100.00;102717.53;4999475;28;20126;-74
2023/12/15 03:06:35;;;;;;;41.65;26.35;;;;;;;4.88;100.00;102728.06;4983127;28;20293;-74
2023/12/15 03:09:01;;;;;;;41.33;26.45;;;;;;;4.88;100.00;102735.09;4979322;28;20042;-75
2023/12/15 03:11:26;;;;;;;42.50;27.17;;;;;;;4.88;100.00;102740.38;4983965;28;20046;-74
2023/12/15 03:13:51;;;;;;;43.28;27.13;;;;;;;4.89;100.00;102744.78;4978715;28;20043;-75
2023/12/15 03:16:19;;;;;;;41.92;26.63;;;;;;;4.91;100.00;102749.19;4968983;28;20512;-75
2023/12/15 03:18:45;;;;;;;46.85;28.65;;;;;;;4.88;100.00;102740.38;4975655;28;20046;-75
2023/12/15 03:21:10;;;;;;;45.58;28.35;;;;;;;4.93;100.00;102752.72;4969057;28;20755;-74
2023/12/15 03:23:36;;;;;;;44.25;28.35;;;;;;;4.93;100.00;102755.38;4975036;28;20070;-75
2023/12/15 03:26:01;;;;;;;46.10;28.63;;;;;;;4.93;100.00;102763.28;4982478;28;20117;-74
2023/12/15 03:28:26;;;;;;;46.63;28.50;;;;;;;4.93;100.00;102762.38;4980135;28;20041;-75
2023/12/15 03:30:52;;;;;;;48.67;29.52;;;;;;;4.93;100.00;102765.94;4986841;28;20081;-76
2023/12/15 03:33:18;;;;;;;53.08;31.05;;;;;;;4.96;100.00;102778.22;4981186;28;20404;-76
2023/12/15 03:35:43;;;;;;;51.72;30.85;;;;;;;4.97;100.00;102770.34;4977382;28;20666;-75
2023/12/15 03:38:11;;;;;;;51.85;29.90;;;;;;;4.97;100.00;102780.91;4987467;28;20037;-75
2023/12/15 03:40:36;;;;;;;53.55;30.55;;;;;;;4.97;100.00;102783.53;4987759;28;20141;-75
2023/12/15 03:43:02;;;;;;;56.80;30.88;;;;;;;4.98;100.00;102787.94;4980890;28;20528;-77
2023/12/15 03:45:27;;;;;;;61.38;32.08;;;;;;;5.00;100.00;102799.34;4969780;28;20122;-74
2023/12/15 03:47:52;;;;;;;57.38;33.03;;;;;;;5.00;100.00;102787.91;4978808;28;20069;-75
2023/12/15 03:50:21;;;;;;;61.58;30.92;;;;;;;5.01;100.00;102794.94;4976582;28;20054;-76
2023/12/15 03:52:46;;;;;;;60.90;32.38;;;;;;;5.00;100.00;102796.72;4978884;28;20046;-75
2023/12/15 03:55:11;;;;;;;63.25;33.33;;;;;;;5.00;100.00;102801.13;4983468;28;20698;-74
2023/12/15 03:57:37;;;;;;;62.58;33.40;;;;;;;4.98;100.00;102787.94;4979289;28;20741;-75
2023/12/15 04:00:03;;;;;;;68.57;36.28;;;;;;;5.02;100.00;102793.19;4985484;28;20117;-75
2023/12/15 04:02:28;;;;;;;69.35;35.50;;;;;;;5.01;100.00;102802.88;4985874;28;20213;-75
2023/12/15 04:04:53;;;;;;;72.25;34.38;;;;;;;5.03;100.00;102805.53;4986691;28;20042;-75
2023/12/15 04:07:18;;;;;;;76.93;36.25;;;;;;;5.04;100.00;102807.28;4995009;28;20041;-74
2023/12/15 04:09:44;;;;;;;74.38;36.50;;;;;;;5.05;100.00;102807.28;4985843;28;20531;-74
2023/12/15 04:12:09;;;;;;;80.68;38.28;;;;;;;5.02;100.00;102798.47;4986891;28;20121;-75
2023/12/15 04:14:34;;;;;;;79.78;37.80;;;;;;;4.95;100.00;102795.81;4979995;28;20124;-75
2023/12/15 04:17:00;;;;;;;75.25;37.08;;;;;;;5.07;100.00;102812.59;4983040;28;20069;-75
2023/12/15 04:19:26;;;;;;;85.93;39.17;;;;;;;5.07;100.00;102817.88;4987668;28;20030;-76
2023/12/15 04:21:51;;;;;;;90.68;40.10;;;;;;;5.07;100.00;102825.78;4984878;28;20579;-76
2023/12/15 04:24:16;;;;;;;86.82;39.58;;;;;;;5.09;100.00;102826.66;4984634;28;20562;-75
2023/12/15 04:26:42;;;;;;;86.00;40.92;;;;;;;4.99;100.00;102804.63;4987031;28;20524;-75
2023/12/15 04:29:07;;;;;;;94.88;41.45;;;;;;;5.10;100.00;102828.41;4987184;28;20045;-76
2023/12/15 04:31:32;;;;;;;96.03;41.17;;;;;;;5.08;100.00;102827.53;4978113;28;20259;-75
2023/12/15 04:33:58;;;;;;;89.47;39.92;;;;;;;5.10;100.00;102836.34;4982006;28;20034;-75
2023/12/15 04:36:23;;;;;;;92.75;41.22;;;;;;;5.08;100.00;102828.41;4984145;28;20054;-74
2023/12/15 04:38:48;;;;;;;97.90;43.35;;;;;;;5.12;100.00;102832.84;4986355;28;20206;-74
2023/12/15 04:41:19;;;;;;;106.07;43.00;;;;;;;5.12;100.00;102840.75;4983630;28;20034;-73
2023/12/15 04:43:45;;;;;;;99.70;43.53;;;;;;;5.13;100.00;102842.50;4965499;28;20042;-74
2023/12/15 04:46:10;;;;;;;106.38;44.50;;;;;;;5.13;100.00;102846.91;4982382;28;20042;-76
2023/12/15 04:48:36;;;;;;;106.95;44.08;;;;;;;5.16;100.00;102846.94;4983298;28;20038;-73
2023/12/15 04:51:01;;;;;;;109.40;44.55;;;;;;;5.13;100.00;102831.94;4986727;28;20026;-75
2023/12/15 04:53:26;;;;;;;120.75;46.88;;;;;;;5.18;100.00;102834.59;4985720;28;20030;-75
2023/12/15 04:55:52;;;;;;;115.75;45.60;;;;;;;5.17;100.00;102843.41;4980477;28;20046;-74
2023/12/15 04:58:20;;;;;;;121.97;47.10;;;;;;;5.16;100.00;102845.16;4984681;28;20066;-74
2023/12/15 05:00:46;;;;;;;121.40;47.95;;;;;;;5.18;100.00;102843.44;4979090;28;20046;-74
2023/12/15 05:03:11;;;;;;;116.22;47.00;;;;;;;5.18;100.00;102848.72;4984912;28;20077;-74
2023/12/15 05:05:36;;;;;;;119.40;47.28;;;;;;;5.20;100.00;102861.91;4977333;28;20046;-75
2023/12/15 05:08:02;;;;;;;124.18;49.13;;;;;;;5.22;100.00;102857.50;4981137;28;20034;-75
2023/12/15 05:10:27;;;;;;;117.43;48.80;;;;;;;5.21;100.00;102853.97;4980832;28;20046;-74
2023/12/15 05:12:52;;;;;;;124.00;48.20;;;;;;;5.22;100.00;102855.75;4982363;28;20062;-74
2023/12/15 05:15:18;;;;;;;120.63;49.78;;;;;;;5.24;100.00;102864.56;4984374;28;20046;-74
2023/12/15 05:17:43;;;;;;;118.38;47.47;;;;;;;5.23;100.00;102861.94;4986992;28;20034;-75
2023/12/15 05:20:10;;;;;;;120.55;48.20;;;;;;;5.27;100.00;102876.00;4986423;28;20521;-75
2023/12/15 05:22:35;;;;;;;121.50;49.67;;;;;;;5.27;100.00;102874.25;4979142;28;20221;-75
2023/12/15 05:25:01;;;;;;;123.07;49.00;;;;;;;5.27;100.00;102876.91;4980116;28;20031;-75
2023/12/15 05:27:26;;;;;;;122.07;48.47;;;;;;;5.24;100.00;102871.59;4976747;28;20138;-74
2023/12/15 05:29:51;;;;;;;123.68;51.38;;;;;;;5.28;100.00;102878.66;4982302;28;20026;-75
2023/12/15 05:32:19;;;;;;;121.90;49.28;;;;;;;5.29;100.00;102883.06;4981909;28;20122;-73
2023/12/15 05:34:45;;;;;;;118.50;49.15;;;;;;;5.31;100.00;102878.69;4978806;28;20062;-74
2023/12/15 05:37:12;;;;;;;126.28;49.58;;;;;;;5.30;100.00;102876.00;4985169;28;20117;-77
2023/12/15 05:39:38;;;;;;;120.35;49.35;;;;;;;5.33;100.00;102889.22;4984367;28;20074;-75
2023/12/15 05:42:04;;;;;;;130.00;52.80;;;;;;;5.33;100.00;102889.22;4984130;28;20042;-74
2023/12/15 05:44:29;;;;;;;133.00;51.95;;;;;;;5.35;100.00;102898.94;4984434;28;20382;-75
2023/12/15 05:46:55;;;;;;;130.80;51.45;;;;;;;5.35;100.00;102906.84;4984235;28;20065;-75
2023/12/15 05:49:20;;;;;;;126.65;52.70;;;;;;;5.28;100.00;102897.13;4970660;28;20053;-75
2023/12/15 05:51:49;;;;;;;130.10;52.25;;;;;;;5.36;100.00;102913.03;4985531;28;20526;-75
2023/12/15 05:54:14;;;;;;;133.15;54.67;;;;;;;5.37;100.00;102918.28;4980599;28;20053;-75
2023/12/15 05:56:40;;;;;;;134.00;53.60;;;;;;;5.37;100.00;102918.28;4975712;28;20038;-74
2023/12/15 05:59:05;;;;;;;133.00;54.35;;;;;;;5.39;100.00;102924.47;4974257;28;20042;-74
2023/12/15 06:01:30;;;;;;;137.15;53.35;;;;;;;5.33;100.00;102910.34;4976492;28;20057;-74
2023/12/15 06:03:56;;;;;;;140.15;54.90;;;;;;;5.39;100.00;102918.28;4974067;28;20507;-75
2023/12/15 06:06:21;;;;;;;138.18;56.85;;;;;;;5.41;100.00;102930.63;4985920;28;20082;-75
2023/12/15 06:08:48;;;;;;;135.95;56.88;;;;;;;5.43;100.00;102925.34;4975439;28;20050;-74
2023/12/15 06:11:13;;;;;;;139.70;56.67;;;;;;;5.37;100.00;102909.50;4982304;28;20081;-77
2023/12/15 06:13:39;;;;;;;148.35;58.97;;;;;;;5.44;100.00;102914.81;4976656;28;20074;-74
2023/12/15 06:16:05;;;;;;;141.18;56.63;;;;;;;5.43;100.00;102912.13;4977034;28;20045;-74
2023/12/15 06:18:30;;;;;;;141.38;55.88;;;;;;;5.41;100.00;102901.59;4974300;28;20363;-73
2023/12/15 06:20:56;;;;;;;143.80;55.25;;;;;;;5.48;100.00;102911.31;4980361;28;20038;-75
2023/12/15 06:23:21;;;;;;;139.20;57.47;;;;;;;5.49;100.00;102909.53;4982365;28;20042;-75
2023/12/15 06:25:46;;;;;;;140.82;57.75;;;;;;;5.49;100.00;102918.34;4974323;28;20034;-75
2023/12/15 06:28:12;;;;;;;138.63;57.92;;;;;;;5.49;100.00;102930.66;4978177;28;20884;-74
2023/12/15 06:30:37;;;;;;;135.52;56.40;;;;;;;5.49;100.00;102923.63;4986232;28;20042;-76
2023/12/15 06:33:06;;;;;;;136.13;55.70;;;;;;;5.47;100.00;102925.34;4977834;28;20026;-74
2023/12/15 06:35:31;;;;;;;131.95;55.38;;;;;;;5.48;100.00;102931.56;4984626;28;20038;-75
2023/12/15 06:37:56;;;;;;;139.90;56.85;;;;;;;5.49;100.00;102942.13;4973503;28;20089;-74
2023/12/15 06:40:22;;;;;;;133.13;55.13;;;;;;;5.50;100.00;102945.63;4983733;28;20033;-73
2023/12/15 06:42:48;;;;;;;147.70;57.70;;;;;;;5.47;100.00;102949.13;4980630;28;20307;-76
2023/12/15 06:45:13;;;;;;;143.95;58.70;;;;;;;5.49;100.00;102957.97;4976434;28;20038;-75
2023/12/15 06:47:39;;;;;;;144.63;57.50;;;;;;;5.49;100.00;102957.09;4983482;28;20046;-75
2023/12/15 06:50:08;;;;;;;135.00;55.45;;;;;;;5.48;100.00;102961.50;4980002;28;20500;-75
2023/12/15 06:52:35;;;;;;;148.20;58.47;;;;;;;5.49;100.00;102963.25;4976338;28;20042;-74
2023/12/15 06:55:01;;;;;;;143.35;58.08;;;;;;;5.50;100.00;102962.34;4979288;28;20029;-74
2023/12/15 06:57:27;;;;;;;147.60;59.42;;;;;;;5.48;100.00;102966.78;4980690;28;20057;-75
2023/12/15 06:59:52;;;;;;;156.98;59.75;;;;;;;5.52;100.00;102969.41;4980649;28;20066;-75
2023/12/15 07:02:18;;;;;;;144.55;57.25;;;;;;;5.53;100.00;102968.53;4974703;28;20520;-74
2023/12/15 07:04:43;;;;;;;145.35;58.35;;;;;;;5.53;100.00;102972.06;4975933;28;20093;-73
2023/12/15 07:07:09;;;;;;;148.35;59.10;;;;;;;5.48;100.00;102969.41;4988628;28;20034;-73
2023/12/15 07:09:35;;;;;;;149.30;57.53;;;;;;;5.52;100.00;102986.16;4987757;28;20038;-74
2023/12/15 07:12:01;;;;;;;145.98;58.45;;;;;;;5.56;100.00;102992.31;4982670;28;20038;-74
2023/12/15 07:14:26;;;;;;;142.60;56.53;;;;;;;5.53;100.00;102985.28;4981599;28;20185;-73
2023/12/15 07:16:51;;;;;;;139.13;56.67;;;;;;;5.57;100.00;102999.38;4982068;28;20113;-74
2023/12/15 07:19:18;;;;;;;146.25;58.65;;;;;;;5.55;100.00;102995.84;4971033;28;20057;-74
2023/12/15 07:21:43;;;;;;;138.60;56.72;;;;;;;5.61;100.00;103004.69;4986921;28;20027;-74
2023/12/15 07:24:09;;;;;;;151.95;61.88;;;;;;;5.62;100.00;103013.50;4985383;28;20040;-73
2023/12/15 07:26:34;;;;;;;153.43;61.50;;;;;;;5.63;100.00;103020.53;4983553;28;20047;-74
2023/12/15 07:28:59;;;;;;;152.80;59.35;;;;;;;5.63;100.00;103004.69;4988194;28;20034;-74
2023/12/15 07:31:24;;;;;;;147.52;57.95;;;;;;;5.65;100.00;103010.88;4986815;28;20039;-74
2023/12/15 07:33:50;;;;;;;141.80;58.25;;;;;;;5.65;100.00;103019.66;4980203;28;20074;-74
2023/12/15 07:36:15;;;;;;;145.82;59.15;;;;;;;5.70;100.00;103027.63;4987376;28;20055;-74
2023/12/15 07:38:41;;;;;;;147.10;58.67;;;;;;;5.71;100.00;103032.00;4975312;28;20042;-75
2023/12/15 07:41:06;;;;;;;140.82;58.05;;;;;;;5.68;100.00;103018.78;4984297;28;20126;-74
2023/12/15 07:43:31;;;;;;;132.05;57.17;;;;;;;5.72;100.00;103028.50;4986386;28;20183;-75
2023/12/15 07:45:57;;;;;;;134.57;59.17;;;;;;;5.74;100.00;103039.97;4982121;28;20385;-75
2023/12/15 07:48:22;;;;;;;136.02;58.50;;;;;;;5.70;100.00;103039.06;4986963;28;20037;-74
2023/12/15 07:50:48;;;;;;;131.60;55.17;;;;;;;5.64;100.00;103030.22;4983405;28;20035;-75
2023/12/15 07:53:13;;;;;;;129.90;56.30;;;;;;;5.76;100.00;103038.19;4974788;28;20181;-74
2023/12/15 07:55:39;;;;;;;128.50;56.72;;;;;;;5.78;100.00;103035.59;4988983;28;20092;-75
2023/12/15 07:58:04;;;;;;;130.02;56.20;;;;;;;5.69;100.00;103025.84;4988953;28;20045;-75
2023/12/15 08:00:29;;;;;;;135.65;55.95;;;;;;;5.79;100.00;103042.63;4977632;28;20069;-75
2023/12/15 08:02:55;;;;;;;126.20;54.38;;;;;;;5.82;100.00;103043.53;4984253;28;20030;-76
2023/12/15 08:05:20;;;;;;;124.93;55.20;;;;;;;5.77;100.00;103045.28;4985466;28;20045;-74
2023/12/15 08:07:45;;;;;;;123.07;54.25;;;;;;;5.84;100.00;103059.38;4988079;28;20049;-75
2023/12/15 08:10:11;;;;;;;129.13;55.38;;;;;;;5.78;100.00;103049.66;4980176;28;20069;-74
2023/12/15 08:12:36;;;;;;;126.55;55.03;;;;;;;5.85;100.00;103061.13;4987904;28;20073;-75
2023/12/15 08:15:02;;;;;;;121.85;53.33;;;;;;;5.85;100.00;103063.78;4988038;28;20027;-75
2023/12/15 08:17:27;;;;;;;123.47;53.42;;;;;;;5.86;100.00;103069.09;4985650;28;20046;-73
2023/12/15 08:19:52;;;;;;;119.00;54.00;;;;;;;5.87;100.00;103072.59;4991500;28;20045;-74
2023/12/15 08:22:18;;;;;;;123.07;54.10;;;;;;;5.83;100.00;103082.28;4981847;28;20041;-71
2023/12/15 08:24:43;;;;;;;117.15;53.03;;;;;;;5.87;100.00;103089.34;4983621;28;20046;-74
2023/12/15 08:27:09;;;;;;;118.80;53.40;;;;;;;5.88;100.00;103091.09;4964597;28;20045;-74
2023/12/15 08:29:34;;;;;;;112.03;52.47;;;;;;;5.87;100.00;103092.00;4980028;28;20142;-75
2023/12/15 08:31:59;;;;;;;112.93;51.35;;;;;;;5.85;100.00;103091.13;4983026;28;20034;-74
2023/12/15 08:34:26;;;;;;;110.28;50.13;;;;;;;5.88;100.00;103095.50;4981343;28;20531;-74
2023/12/15 08:36:52;;;;;;;110.63;52.28;;;;;;;5.93;100.00;103102.59;4983141;28;20046;-74
2023/12/15 08:39:21;;;;;;;107.25;51.20;;;;;;;5.95;100.00;103114.09;4984476;28;20030;-75
2023/12/15 08:41:46;;;;;;;109.85;50.85;;;;;;;5.96;100.00;103113.22;4985177;28;20504;-75
2023/12/15 08:44:12;;;;;;;104.95;50.63;;;;;;;5.96;100.00;103121.13;4981493;28;20067;-74
2023/12/15 08:46:37;;;;;;;103.97;50.33;;;;;;;5.95;100.00;103114.09;4984868;28;20436;-75
2023/12/15 08:49:03;;;;;;;99.57;49.60;;;;;;;5.99;100.00;103139.66;4977558;28;20041;-75
2023/12/15 08:51:29;;;;;;;105.65;51.63;;;;;;;5.98;100.00;103127.31;4982027;28;20086;-74
2023/12/15 08:53:54;;;;;;;114.75;51.03;;;;;;;6.03;100.00;103143.22;4981155;28;20042;-74
2023/12/15 08:56:19;;;;;;;97.60;47.83;;;;;;;5.98;100.00;103145.84;4974631;28;20039;-75
2023/12/15 08:58:45;;;;;;;101.00;48.88;;;;;;;6.05;100.00;103154.66;4978033;28;20301;-75
2023/12/15 09:01:10;;;;;;;101.85;52.90;;;;;;;6.05;100.00;103157.31;4983755;28;20042;-75
2023/12/15 09:03:36;;;;;;;95.13;48.47;;;;;;;6.12;100.00;103161.75;4986240;28;20038;-74
2023/12/15 09:06:02;;;;;;;99.32;49.33;;;;;;;6.13;100.00;103160.00;4984816;28;20038;-74
2023/12/15 09:08:27;;;;;;;98.20;48.53;;;;;;;6.21;100.00;103163.56;4987301;28;20038;-75
2023/12/15 09:10:52;;;;;;;89.50;47.15;;;;;;;6.18;100.00;103158.25;4981980;28;20548;-75
2023/12/15 09:13:18;;;;;;;94.13;46.90;;;;;;;6.26;100.00;103169.75;4982616;28;20052;-74
2023/12/15 09:15:44;;;;;;;92.90;47.75;;;;;;;6.30;100.00;103174.16;4986188;28;20050;-75
2023/12/15 09:18:09;;;;;;;92.60;45.92;;;;;;;6.32;100.00;103167.13;4986472;28;20104;-74
2023/12/15 09:20:35;;;;;;;86.70;45.70;;;;;;;6.36;100.00;103163.63;4983047;28;20460;-75
2023/12/15 09:23:06;;;;;;;83.90;44.90;;;;;;;6.38;100.00;103159.22;4964729;28;20408;-76
2023/12/15 09:25:31;;;;;;;79.75;45.60;;;;;;;6.39;100.00;103173.31;4977871;28;20034;-76
2023/12/15 09:27:57;;;;;;;80.38;44.15;;;;;;;6.40;100.00;103172.47;4987766;28;20037;-76
2023/12/15 09:30:22;;;;;;;83.18;44.92;;;;;;;6.42;100.00;103184.78;4975565;28;20026;-77
2023/12/15 09:32:48;;;;;;;82.28;44.08;;;;;;;6.46;100.00;103191.88;4983965;28;20065;-76
2023/12/15 09:35:17;;;;;;;82.63;42.72;;;;;;;6.51;100.00;103194.53;4993948;28;20045;-77
2023/12/15 09:37:43;;;;;;;77.60;44.33;;;;;;;6.48;100.00;103178.66;4977416;28;20112;-77
2023/12/15 09:40:09;;;;;;;74.47;41.92;;;;;;;6.59;100.00;103197.19;4983696;28;20464;-76
2023/12/15 09:42:35;;;;;;;74.65;41.50;;;;;;;6.58;100.00;103196.31;4992476;28;20118;-77
2023/12/15 09:45:00;;;;;;;74.60;41.42;;;;;;;6.63;100.00;103204.28;4996505;28;20354;-76
2023/12/15 09:47:28;;;;;;;71.03;40.67;;;;;;;6.69;100.00;103222.84;4975631;28;20390;-76
2023/12/15 09:49:59;;;;;;;70.25;40.58;;;;;;;6.68;100.00;103221.03;4990101;28;20031;-78
2023/12/15 09:52:26;;;;;;;66.40;38.83;;;;;;;6.69;100.00;103228.13;4988971;28;20253;-77
2023/12/15 09:54:52;;;;;;;71.38;41.90;;;;;;;6.61;100.00;103211.34;4982691;28;20499;-77
2023/12/15 09:57:21;;;;;;;66.90;39.55;;;;;;;6.73;100.00;103251.97;4983218;28;20201;-76
2023/12/15 09:59:46;;;;;;;67.78;40.38;;;;;;;6.66;100.00;103244.00;4993209;28;20392;-77
2023/12/15 10:02:12;;;;;;;67.80;38.25;;;;;;;6.69;100.00;103254.59;4985566;28;20030;-76
2023/12/15 10:04:37;;;;;;;67.15;36.83;;;;;;;6.66;100.00;103255.47;4982718;28;20040;-77
2023/12/15 10:07:03;;;;;;;70.88;38.53;;;;;;;6.70;100.00;103251.06;4992379;28;20070;-77
2023/12/15 10:09:28;;;;;;;64.38;39.25;;;;;;;6.75;100.00;103251.97;4988551;28;20053;-76
2023/12/15 10:11:54;;;;;;;65.43;40.33;;;;;;;6.77;100.00;103259.88;4984328;28;20507;-77
2023/12/15 10:14:19;;;;;;;67.78;37.55;;;;;;;6.76;100.00;103261.66;4986221;28;20038;-76
2023/12/15 10:16:46;;;;;;;62.03;38.17;;;;;;;6.76;100.00;103264.31;4984930;28;20331;-77
2023/12/15 10:19:12;;;;;;;65.45;38.40;;;;;;;6.76;100.00;103268.72;4989414;28;20030;-77
2023/12/15 10:21:37;;;;;;;63.00;36.85;;;;;;;6.71;100.00;103281.94;4982621;28;20045;-77
2023/12/15 10:24:24;;;;;;;69.30;39.67;;;;;;;6.70;100.00;103280.19;4982679;28;20085;-79
2023/12/15 10:26:50;;;;;;;67.97;38.95;;;;;;;6.61;100.00;103275.72;4982363;28;20617;-78
2023/12/15 10:29:21;;;;;;;61.15;36.63;;;;;;;6.63;100.00;103288.94;4983390;28;20038;-77
2023/12/15 10:31:51;;;;;;;63.78;36.42;;;;;;;6.63;100.00;103297.78;4985733;28;20120;-77
2023/12/15 10:34:20;;;;;;;63.97;38.60;;;;;;;6.65;100.00;103296.03;4987800;28;20105;-78
2023/12/15 10:36:46;;;;;;;60.92;37.00;;;;;;;6.65;100.00;103288.09;4981693;28;20081;-78
2023/12/15 10:39:15;;;;;;;62.95;37.33;;;;;;;6.72;100.00;103300.47;4984386;28;20061;-76
2023/12/15 10:41:41;;;;;;;63.20;34.88;;;;;;;6.74;100.00;103303.13;4985491;28;20124;-77
2023/12/15 10:44:07;;;;;;;61.97;36.90;;;;;;;6.78;100.00;103307.56;4997006;28;20465;-77
2023/12/15 10:46:33;;;;;;;64.93;36.60;;;;;;;6.86;100.00;103308.47;4993071;28;20038;-78
2023/12/15 10:48:59;;;;;;;62.53;33.75;;;;;;;6.82;100.00;103308.47;4986026;28;20056;-77
2023/12/15 10:51:26;;;;;;;59.17;33.97;;;;;;;6.92;100.00;103332.31;4966531;28;20171;-77
2023/12/15 10:53:56;;;;;;;56.10;32.30;;;;;;;6.92;100.00;103327.03;4979000;28;20041;-78
2023/12/15 10:56:26;;;;;;;59.90;33.72;;;;;;;6.96;100.00;103331.44;4986845;28;20034;-77
2023/12/15 10:58:52;;;;;;;55.75;33.50;;;;;;;6.98;100.00;103342.03;4982621;28;20042;-78
2023/12/15 11:01:22;;;;;;;54.83;32.58;;;;;;;7.02;100.00;103346.47;4979979;28;20054;-77